Time;durP1;ratioP1;P1;durP2;ratioP2;P2;SDS_P1;SDS_P2;PMS_P1;PMS_P2;Temp;Humidity;BMP_temperature;BMP_pressure;BME280_temperature;BME280_humidity;BME280_pressure;Samples;Min_cycle;Max_cycle;Signal;HPM_P1;HPM_P2
2022/11/02 00:00:29;;;;;;;7.38;4.30;;;10.30;94.40;;;;;;5048847;28;20726;-66
2022/11/02 00:02:58;;;;;;;6.47;4.47;;;10.30;93.50;;;;;;5051849;28;20209;-65
2022/11/02 00:05:27;;;;;;;8.77;4.32;;;10.30;93.90;;;;;;5052216;28;20212;-66
2022/11/02 00:07:55;;;;;;;6.25;4.55;;;10.30;93.80;;;;;;5047550;28;20545;-65
2022/11/02 00:10:24;;;;;;;7.68;4.93;;;10.30;94.60;;;;;;5051951;28;20198;-66
2022/11/02 00:12:51;;;;;;;5.03;4.18;;;10.20;95.20;;;;;;5051558;28;20214;-66
2022/11/02 00:15:19;;;;;;;7.07;4.88;;;10.20;94.80;;;;;;5049469;28;20235;-65
2022/11/02 00:17:50;;;;;;;6.72;3.35;;;10.20;94.70;;;;;;5051001;28;20222;-65
2022/11/02 00:20:20;;;;;;;9.48;6.53;;;10.30;95.40;;;;;;5051967;28;20195;-66
2022/11/02 00:22:50;;;;;;;8.60;4.03;;;10.30;95.60;;;;;;5051097;28;20194;-67
2022/11/02 00:25:21;;;;;;;11.45;4.50;;;10.30;95.70;;;;;;5052496;28;20202;-65
2022/11/02 00:27:48;;;;;;;7.57;3.60;;;10.40;95.70;;;;;;5052977;28;20260;-65
2022/11/02 00:30:15;;;;;;;7.85;3.42;;;10.30;95.00;;;;;;5053027;28;20233;-66
2022/11/02 00:32:43;;;;;;;6.15;3.83;;;10.20;94.70;;;;;;5052813;28;20206;-65
2022/11/02 00:35:11;;;;;;;8.50;4.20;;;10.00;94.80;;;;;;5053291;28;20191;-65
2022/11/02 00:37:40;;;;;;;8.00;4.13;;;10.00;94.90;;;;;;5052641;28;20240;-67
2022/11/02 00:40:09;;;;;;;4.93;3.63;;;10.00;94.90;;;;;;5053132;28;20209;-68
2022/11/02 00:42:36;;;;;;;4.22;3.25;;;9.90;95.60;;;;;;5052861;28;20198;-66
2022/11/02 00:45:04;;;;;;;4.97;3.38;;;9.80;96.00;;;;;;5053134;28;20220;-66
2022/11/02 00:47:31;;;;;;;7.97;4.10;;;9.80;96.20;;;;;;5052442;28;20527;-66
2022/11/02 00:49:58;;;;;;;6.70;3.33;;;9.80;96.10;;;;;;5053128;28;20198;-66
2022/11/02 00:52:25;;;;;;;6.13;3.60;;;9.80;96.00;;;;;;5052514;28;20217;-67
2022/11/02 00:54:54;;;;;;;8.45;4.20;;;9.80;95.80;;;;;;5052688;28;20195;-66
2022/11/02 00:57:22;;;;;;;6.45;3.47;;;9.70;96.20;;;;;;5052695;28;20229;-66
2022/11/02 00:59:50;;;;;;;6.35;3.90;;;9.70;96.20;;;;;;5053061;28;20224;-66
2022/11/02 01:02:17;;;;;;;4.97;3.83;;;9.70;96.10;;;;;;5052301;28;20244;-66
2022/11/02 01:04:44;;;;;;;7.70;3.63;;;9.80;95.80;;;;;;5052856;28;20194;-66
2022/11/02 01:07:11;;;;;;;4.65;3.30;;;9.70;95.60;;;;;;5052068;28;20260;-66
2022/11/02 01:09:38;;;;;;;8.77;3.72;;;9.70;96.00;;;;;;5052834;28;20198;-66
2022/11/02 01:12:08;;;;;;;14.27;7.80;;;9.80;96.00;;;;;;5052264;28;20217;-66
2022/11/02 01:14:36;;;;;;;13.10;5.35;;;9.80;96.40;;;;;;5052564;28;20209;-66
2022/11/02 01:17:03;;;;;;;8.13;4.88;;;9.70;96.60;;;;;;5052517;28;20230;-69
2022/11/02 01:19:31;;;;;;;12.40;5.30;;;9.70;96.70;;;;;;5052359;28;20198;-67
2022/11/02 01:21:58;;;;;;;9.52;4.47;;;9.70;96.70;;;;;;5032362;28;20199;-66
2022/11/02 01:24:25;;;;;;;7.22;4.03;;;9.60;96.60;;;;;;5051097;28;20663;-66
2022/11/02 01:26:53;;;;;;;7.88;3.90;;;9.60;96.60;;;;;;5052584;28;20243;-65
2022/11/02 01:29:21;;;;;;;5.60;3.95;;;9.60;96.70;;;;;;5051869;28;20200;-66
2022/11/02 01:31:49;;;;;;;5.63;4.05;;;9.60;96.70;;;;;;5052421;28;20249;-66
2022/11/02 01:34:16;;;;;;;10.35;4.55;;;9.60;96.80;;;;;;5051920;28;20268;-66
2022/11/02 01:36:45;;;;;;;10.57;4.15;;;9.70;96.60;;;;;;5052575;28;20549;-65
2022/11/02 01:39:14;;;;;;;6.72;3.30;;;9.70;96.50;;;;;;5051869;28;20644;-68
2022/11/02 01:41:41;;;;;;;6.72;3.38;;;9.70;96.30;;;;;;5052492;28;20339;-66
2022/11/02 01:44:29;;;;;;;6.82;3.67;;;9.70;96.10;;;;;;5051908;28;20244;-68
2022/11/02 01:47:01;;;;;;;5.05;3.58;;;9.70;96.10;;;;;;5052124;28;20190;-66
2022/11/02 01:49:32;;;;;;;7.70;3.83;;;9.60;95.80;;;;;;5053545;28;20561;-66
2022/11/02 01:52:06;;;;;;;4.63;3.08;;;9.60;96.20;;;;;;5056351;28;20225;-66
2022/11/02 01:54:41;;;;;;;4.00;2.70;;;9.50;96.30;;;;;;5055730;28;20268;-66
2022/11/02 01:57:12;;;;;;;6.75;3.60;;;9.50;96.00;;;;;;5056315;28;20185;-68
2022/11/02 01:59:44;;;;;;;8.77;3.25;;;9.30;96.30;;;;;;5055819;28;20190;-66
2022/11/02 02:02:16;;;;;;;10.13;2.97;;;9.10;97.30;;;;;;5056182;28;20190;-66
2022/11/02 02:04:47;;;;;;;5.75;3.75;;;9.10;97.70;;;;;;5055507;28;20565;-66
2022/11/02 02:07:16;;;;;;;4.05;2.95;;;9.10;98.40;;;;;;5056224;28;20201;-66
2022/11/02 02:09:45;;;;;;;8.00;3.40;;;9.20;98.30;;;;;;5055653;28;20193;-66
2022/11/02 02:12:12;;;;;;;6.22;2.83;;;9.30;98.60;;;;;;5056108;28;20250;-66
2022/11/02 02:14:43;;;;;;;5.68;5.00;;;9.30;98.80;;;;;;5055481;28;20640;-67
2022/11/02 02:17:30;;;;;;;11.98;3.63;;;9.50;98.90;;;;;;5055826;28;20249;-66
2022/11/02 02:20:02;;;;;;;5.25;3.95;;;9.50;98.80;;;;;;5055277;28;20657;-66
2022/11/02 02:22:56;;;;;;;6.95;3.00;;;9.50;98.20;;;;;;5055533;28;20186;-66
2022/11/02 02:25:49;;;;;;;4.68;2.95;;;9.50;98.10;;;;;;5035666;28;20195;-66
2022/11/02 02:28:24;;;;;;;10.00;4.25;;;9.50;98.80;;;;;;5038197;28;20202;-66
2022/11/02 02:30:56;;;;;;;6.57;3.72;;;9.50;99.10;;;;;;5055228;28;20610;-66
2022/11/02 02:33:30;;;;;;;12.00;5.07;;;9.60;99.40;;;;;;5055176;28;20629;-66
2022/11/02 02:36:13;;;;;;;7.80;4.18;;;9.70;99.60;;;;;;5055081;28;20191;-66
2022/11/02 02:38:47;;;;;;;8.15;4.50;;;9.70;99.30;;;;;;5055142;28;20190;-66
2022/11/02 02:41:22;;;;;;;5.55;2.83;;;9.80;99.80;;;;;;5055392;28;20217;-66
2022/11/02 02:43:55;;;;;;;7.72;3.67;;;9.90;99.50;;;;;;5054985;28;20193;-66
2022/11/02 02:46:27;;;;;;;5.10;3.20;;;10.00;98.90;;;;;;5055289;28;20257;-67
2022/11/02 02:48:58;;;;;;;11.43;4.15;;;10.10;98.80;;;;;;5054700;28;20209;-66
2022/11/02 02:51:30;;;;;;;9.20;3.42;;;10.20;98.70;;;;;;5055139;28;20244;-66
2022/11/02 02:54:02;;;;;;;6.43;4.40;;;10.30;98.60;;;;;;5054589;28;20229;-66
2022/11/02 02:56:34;;;;;;;5.85;3.28;;;10.40;98.40;;;;;;5055112;28;20221;-66
2022/11/02 02:59:08;;;;;;;7.50;4.20;;;10.40;98.40;;;;;;5054566;28;20190;-66
2022/11/02 03:01:39;;;;;;;6.95;4.03;;;10.50;98.30;;;;;;5055197;28;20186;-66
2022/11/02 03:04:09;;;;;;;3.90;2.88;;;10.60;98.20;;;;;;5054944;28;20187;-66
2022/11/02 03:06:38;;;;;;;4.95;3.47;;;10.70;98.00;;;;;;5055169;28;20243;-66
2022/11/02 03:09:12;;;;;;;6.93;3.63;;;10.70;97.80;;;;;;5054392;28;20278;-66
2022/11/02 03:11:46;;;;;;;5.47;3.65;;;10.70;97.50;;;;;;5054886;28;20202;-66
2022/11/02 03:14:24;;;;;;;4.03;3.63;;;10.70;97.40;;;;;;5054286;28;20189;-66
2022/11/02 03:17:06;;;;;;;10.15;3.88;;;10.70;97.30;;;;;;5054641;28;20233;-66
2022/11/02 03:19:42;;;;;;;5.55;3.50;;;10.80;97.20;;;;;;5054582;28;20534;-66
2022/11/02 03:22:17;;;;;;;11.70;4.00;;;10.80;97.10;;;;;;5054646;28;20284;-67
2022/11/02 03:24:52;;;;;;;6.13;3.55;;;10.80;97.00;;;;;;5054033;28;20186;-66
2022/11/02 03:27:25;;;;;;;6.38;3.50;;;10.80;97.00;;;;;;5054608;28;20244;-66
2022/11/02 03:30:01;;;;;;;5.72;3.67;;;10.80;96.90;;;;;;5054369;28;20514;-68
2022/11/02 03:32:37;;;;;;;9.10;3.47;;;10.80;96.90;;;;;;5054497;28;20683;-66
2022/11/02 03:35:08;;;;;;;12.02;4.38;;;10.80;96.80;;;;;;5053001;28;20190;-66
2022/11/02 03:37:39;;;;;;;7.55;4.22;;;10.90;96.80;;;;;;5054023;28;20547;-66
2022/11/02 03:40:13;;;;;;;5.78;3.28;;;10.90;96.70;;;;;;5053942;28;20197;-66
2022/11/02 03:42:42;;;;;;;9.05;3.88;;;10.90;96.70;;;;;;5054001;28;20641;-66
2022/11/02 03:45:17;;;;;;;5.30;2.97;;;10.90;96.50;;;;;;5053833;28;20190;-68
2022/11/02 03:47:47;;;;;;;5.75;3.75;;;10.80;96.70;;;;;;5054074;28;20244;-66
2022/11/02 03:50:20;;;;;;;6.63;3.65;;;10.80;96.70;;;;;;5053948;28;20580;-67
2022/11/02 03:52:50;;;;;;;6.50;4.20;;;10.70;96.80;;;;;;5053943;28;20305;-67
2022/11/02 03:55:20;;;;;;;5.80;3.55;;;10.70;97.10;;;;;;5053716;28;20637;-67
2022/11/02 03:57:49;;;;;;;8.93;4.38;;;10.60;97.10;;;;;;5053930;28;20186;-66
2022/11/02 04:00:20;;;;;;;7.55;5.22;;;10.60;97.30;;;;;;5053839;28;20244;-66
2022/11/02 04:02:50;;;;;;;8.85;5.53;;;10.50;97.80;;;;;;5054306;28;20194;-66
2022/11/02 04:05:17;;;;;;;9.55;4.68;;;10.50;97.50;;;;;;5051504;28;20505;-68
2022/11/02 04:10:34;;;;;;;7.72;4.90;;;10.40;98.30;;;;;;5053688;28;20198;-66
2022/11/02 04:15:47;;;;;;;6.68;4.10;;;10.50;98.80;;;;;;5053119;28;20240;-66
2022/11/02 04:20:58;;;;;;;8.38;4.03;;;10.50;99.00;;;;;;5053185;28;20556;-66
2022/11/02 04:26:10;;;;;;;7.82;5.28;;;10.50;99.00;;;;;;5053515;28;20233;-66
2022/11/02 04:28:38;;;;;;;7.40;4.57;;;10.50;99.50;;;;;;5053575;28;20186;-70
2022/11/02 04:31:06;;;;;;;5.28;4.10;;;10.50;99.40;;;;;;5053148;28;20186;-66
2022/11/02 04:33:33;;;;;;;7.80;6.22;;;10.50;99.40;;;;;;5053024;28;20218;-66
2022/11/02 04:36:01;;;;;;;6.15;4.80;;;10.50;99.40;;;;;;5052883;28;20277;-67
2022/11/02 04:38:41;;;;;;;7.40;5.60;;;10.50;99.50;;;;;;5052949;28;20238;-66
2022/11/02 04:43:56;;;;;;;8.20;5.05;;;10.50;99.90;;;;;;5052786;28;20271;-66
2022/11/02 04:46:28;;;;;;;7.40;5.00;;;10.50;99.90;;;;;;5053488;28;20190;-66
2022/11/02 04:48:55;;;;;;;7.65;4.53;;;10.60;99.90;;;;;;5053044;28;20523;-66
2022/11/02 04:51:34;;;;;;;11.18;6.10;;;10.70;99.90;;;;;;5053171;28;20190;-66
2022/11/02 04:54:02;;;;;;;9.35;4.88;;;10.80;99.90;;;;;;5052266;28;20237;-67
2022/11/02 04:56:30;;;;;;;8.63;4.72;;;10.80;99.90;;;;;;5052977;28;20191;-66
2022/11/02 04:58:59;;;;;;;8.65;4.97;;;10.90;99.90;;;;;;5052966;28;20194;-66
2022/11/02 05:01:29;;;;;;;6.80;3.97;;;11.00;99.90;;;;;;5052820;28;20212;-68
2022/11/02 05:03:57;;;;;;;8.45;4.28;;;11.00;99.90;;;;;;5053403;28;20200;-66
2022/11/02 05:06:26;;;;;;;7.10;4.70;;;11.00;99.90;;;;;;5052320;28;20182;-66
2022/11/02 05:08:53;;;;;;;9.32;5.63;;;11.00;99.90;;;;;;5052709;28;20193;-66
2022/11/02 05:11:20;;;;;;;7.32;4.50;;;11.10;99.90;;;;;;5052386;28;20194;-66
2022/11/02 05:13:47;;;;;;;6.78;4.82;;;11.10;99.90;;;;;;5052638;28;20206;-67
2022/11/02 05:16:16;;;;;;;10.15;5.25;;;11.20;99.90;;;;;;5052720;28;20287;-66
2022/11/02 05:18:45;;;;;;;6.43;4.90;;;11.30;99.90;;;;;;5052184;28;20652;-66
2022/11/02 05:21:12;;;;;;;7.88;5.10;;;11.40;99.90;;;;;;5052790;28;20190;-67
2022/11/02 05:23:40;;;;;;;15.07;6.28;;;11.40;99.90;;;;;;5051464;28;20182;-66
2022/11/02 05:26:10;;;;;;;7.88;5.10;;;11.50;99.90;;;;;;5050464;28;20194;-66
2022/11/02 05:28:37;;;;;;;8.77;5.30;;;11.50;99.70;;;;;;5052350;28;20202;-66
2022/11/02 05:31:05;;;;;;;8.00;4.43;;;11.50;99.60;;;;;;5052743;28;20546;-66
2022/11/02 05:33:33;;;;;;;9.27;5.45;;;11.50;99.60;;;;;;5051907;28;20210;-66
2022/11/02 05:36:01;;;;;;;6.55;4.72;;;11.60;99.50;;;;;;5052660;28;20194;-66
2022/11/02 05:38:29;;;;;;;7.45;5.70;;;11.60;99.40;;;;;;5052017;28;20210;-67
2022/11/02 05:40:58;;;;;;;6.70;4.97;;;11.60;99.40;;;;;;5032549;28;20206;-66
2022/11/02 05:43:25;;;;;;;8.68;5.55;;;11.60;99.50;;;;;;5032708;28;20191;-66
2022/11/02 05:45:54;;;;;;;10.35;5.32;;;11.60;99.50;;;;;;5051397;28;20186;-66
2022/11/02 05:48:22;;;;;;;10.23;6.05;;;11.60;99.60;;;;;;5051706;28;20194;-66
2022/11/02 05:50:49;;;;;;;8.60;4.53;;;11.60;99.60;;;;;;5052463;28;20191;-67
2022/11/02 05:53:18;;;;;;;8.25;5.35;;;11.60;99.70;;;;;;5051481;28;20229;-67
2022/11/02 05:55:45;;;;;;;7.63;4.68;;;11.60;99.70;;;;;;5052296;28;20248;-66
2022/11/02 05:58:13;;;;;;;9.50;5.65;;;11.50;99.90;;;;;;5052012;28;20182;-67
2022/11/02 06:00:40;;;;;;;7.78;4.72;;;11.50;99.90;;;;;;5052465;28;20194;-66
2022/11/02 06:03:09;;;;;;;7.53;5.20;;;11.50;99.90;;;;;;5052158;28;20240;-66
2022/11/02 06:05:36;;;;;;;12.23;4.50;;;11.50;99.90;;;;;;5052507;28;20190;-66
2022/11/02 06:08:03;;;;;;;7.90;5.35;;;11.60;99.90;;;;;;5051757;28;20252;-67
2022/11/02 06:10:32;;;;;;;7.88;4.95;;;11.70;99.90;;;;;;5052279;28;20205;-66
2022/11/02 06:13:01;;;;;;;9.75;4.60;;;11.70;99.90;;;;;;5051881;28;20314;-66
2022/11/02 06:15:30;;;;;;;6.18;4.20;;;11.80;99.90;;;;;;5052133;28;20195;-66
2022/11/02 06:17:58;;;;;;;5.55;4.25;;;11.80;99.90;;;;;;5051779;28;20216;-66
2022/11/02 06:20:25;;;;;;;5.70;4.20;;;11.90;99.90;;;;;;5052143;28;20194;-66
2022/11/02 06:22:53;;;;;;;6.00;4.28;;;11.90;99.60;;;;;;5051105;28;20191;-67
2022/11/02 06:25:20;;;;;;;7.40;4.15;;;11.90;99.40;;;;;;5052087;28;20198;-66
2022/11/02 06:27:55;;;;;;;8.63;4.50;;;11.90;99.30;;;;;;5047962;28;20186;-67
2022/11/02 06:30:22;;;;;;;8.63;5.20;;;12.00;99.20;;;;;;5050351;28;20186;-67
2022/11/02 06:32:51;;;;;;;6.32;4.30;;;12.00;99.10;;;;;;5049826;28;20198;-66
2022/11/02 06:35:24;;;;;;;10.13;5.40;;;11.90;99.10;;;;;;5051424;28;20244;-69
2022/11/02 06:37:51;;;;;;;9.52;6.43;;;12.00;99.30;;;;;;5050748;28;20186;-66
2022/11/02 06:40:18;;;;;;;6.00;3.90;;;12.00;99.20;;;;;;5054321;28;20237;-67
2022/11/02 06:42:47;;;;;;;11.05;5.13;;;12.10;99.30;;;;;;5053617;28;20233;-66
2022/11/02 06:45:17;;;;;;;7.25;4.53;;;12.10;99.20;;;;;;5049873;28;20194;-66
2022/11/02 06:47:44;;;;;;;9.13;5.18;;;12.10;99.10;;;;;;5053665;28;20302;-68
2022/11/02 06:50:12;;;;;;;7.20;5.18;;;12.10;99.10;;;;;;5053762;28;20613;-67
2022/11/02 06:52:43;;;;;;;14.15;5.53;;;12.10;99.10;;;;;;5052885;28;20544;-67
2022/11/02 06:55:13;;;;;;;8.23;6.40;;;12.20;99.20;;;;;;5053979;28;20344;-66
2022/11/02 06:57:47;;;;;;;7.78;5.60;;;12.30;99.40;;;;;;5053526;28;20537;-68
2022/11/02 07:00:17;;;;;;;7.30;4.53;;;12.30;98.90;;;;;;5049500;28;20218;-66
2022/11/02 07:02:45;;;;;;;7.13;4.53;;;12.40;98.70;;;;;;5053112;28;20551;-66
2022/11/02 07:05:20;;;;;;;7.00;6.22;;;12.50;98.30;;;;;;5054215;28;20445;-68
2022/11/02 07:07:47;;;;;;;10.00;5.30;;;12.50;98.20;;;;;;5050093;28;20186;-66
2022/11/02 07:10:14;;;;;;;8.50;5.03;;;12.60;98.20;;;;;;5053882;28;20443;-67
2022/11/02 07:12:41;;;;;;;8.23;4.93;;;12.80;98.20;;;;;;5053941;28;20448;-68
2022/11/02 07:15:14;;;;;;;9.77;4.40;;;12.90;97.60;;;;;;5053225;28;20499;-67
2022/11/02 07:17:42;;;;;;;7.27;4.43;;;12.80;97.20;;;;;;5050545;28;20961;-67
2022/11/02 07:20:10;;;;;;;7.57;5.10;;;12.90;97.20;;;;;;5049325;28;20476;-67
2022/11/02 07:22:38;;;;;;;9.83;6.60;;;13.00;97.20;;;;;;5052669;28;20975;-66
2022/11/02 07:25:06;;;;;;;8.37;6.20;;;13.10;97.40;;;;;;5053193;28;20508;-66
2022/11/02 07:27:38;;;;;;;9.17;6.57;;;13.20;96.20;;;;;;5052820;28;20437;-67
2022/11/02 07:30:07;;;;;;;7.83;5.00;;;13.20;96.40;;;;;;5052353;28;20452;-66
2022/11/02 07:32:40;;;;;;;8.00;4.90;;;13.40;96.40;;;;;;5053051;28;21315;-66
2022/11/02 07:35:11;;;;;;;5.90;3.93;;;13.70;96.30;;;;;;5052139;28;20531;-67
2022/11/02 07:37:39;;;;;;;7.43;4.03;;;14.10;94.50;;;;;;5051418;28;20450;-66
2022/11/02 07:40:09;;;;;;;5.53;3.87;;;14.30;94.60;;;;;;5052625;28;20975;-66
2022/11/02 07:42:45;;;;;;;6.10;4.57;;;14.60;93.30;;;;;;5052483;28;20497;-66
2022/11/02 07:45:12;;;;;;;9.13;4.70;;;14.80;93.10;;;;;;5045480;28;20455;-66
2022/11/02 07:47:48;;;;;;;9.63;4.10;;;14.90;92.40;;;;;;5050845;28;20511;-68
2022/11/02 07:50:20;;;;;;;9.87;4.90;;;15.10;92.30;;;;;;5033072;28;20435;-66
2022/11/02 07:52:48;;;;;;;5.97;4.10;;;15.50;91.20;;;;;;5034486;28;20520;-71
2022/11/02 07:55:17;;;;;;;5.20;3.50;;;15.90;90.10;;;;;;5034695;28;20517;-65
2022/11/02 07:57:52;;;;;;;6.20;3.10;;;16.30;88.20;;;;;;5034889;28;20495;-67
2022/11/02 08:00:19;;;;;;;10.37;4.23;;;16.20;87.20;;;;;;5034770;28;20441;-66
2022/11/02 08:02:46;;;;;;;7.73;3.40;;;16.00;87.20;;;;;;5034769;28;20488;-66
2022/11/02 08:05:13;;;;;;;6.23;3.80;;;15.80;87.20;;;;;;5034810;28;20500;-66
2022/11/02 08:07:42;;;;;;;5.83;3.27;;;15.60;88.70;;;;;;5034492;28;20504;-67
2022/11/02 08:10:09;;;;;;;6.27;3.70;;;15.50;89.70;;;;;;5034432;28;20843;-67
2022/11/02 08:12:36;;;;;;;7.10;4.10;;;15.50;90.20;;;;;;5034505;28;20442;-66
2022/11/02 08:15:04;;;;;;;11.47;3.50;;;15.50;90.30;;;;;;5034631;28;20560;-66
2022/11/02 08:17:31;;;;;;;9.33;2.93;;;15.40;89.70;;;;;;5034121;28;20473;-66
2022/11/02 08:19:58;;;;;;;7.00;3.53;;;15.40;89.10;;;;;;5034279;28;20442;-66
2022/11/02 08:22:25;;;;;;;6.10;3.40;;;15.30;89.50;;;;;;5034455;28;20434;-66
2022/11/02 08:24:54;;;;;;;6.27;3.00;;;15.30;90.00;;;;;;5033791;28;20503;-66
2022/11/02 08:27:21;;;;;;;5.40;3.10;;;15.20;89.90;;;;;;5034218;28;20453;-66
2022/11/02 08:29:48;;;;;;;5.70;4.07;;;15.20;89.90;;;;;;5033960;28;20481;-67
2022/11/02 08:32:15;;;;;;;6.10;4.50;;;15.20;88.80;;;;;;5034328;28;20493;-67
2022/11/02 08:34:41;;;;;;;11.73;4.97;;;15.10;89.50;;;;;;5033989;28;20480;-67
2022/11/02 08:37:08;;;;;;;7.23;4.27;;;15.10;88.60;;;;;;5034306;28;20444;-67
2022/11/02 08:39:36;;;;;;;6.17;4.50;;;15.00;88.60;;;;;;5034234;28;20986;-66
2022/11/02 08:42:04;;;;;;;5.60;4.23;;;15.00;88.50;;;;;;5034058;28;20441;-66
2022/11/02 08:44:31;;;;;;;4.40;3.20;;;15.00;87.50;;;;;;5034101;28;20450;-66
2022/11/02 08:46:58;;;;;;;11.07;3.33;;;15.00;87.70;;;;;;5033873;28;20489;-67
2022/11/02 08:49:26;;;;;;;8.50;3.13;;;15.00;88.60;;;;;;5033924;28;20441;-67
2022/11/02 08:51:53;;;;;;;6.10;2.73;;;15.10;88.80;;;;;;5033731;28;20495;-66
2022/11/02 08:54:20;;;;;;;7.03;2.37;;;15.20;89.40;;;;;;5033316;28;20488;-66
2022/11/02 08:56:47;;;;;;;9.00;2.67;;;15.30;89.40;;;;;;5033159;28;20468;-67
2022/11/02 08:59:16;;;;;;;3.43;1.87;;;15.60;90.20;;;;;;5033754;28;20441;-67
2022/11/02 09:01:43;;;;;;;4.80;1.90;;;16.70;91.30;;;;;;5033727;28;20441;-68
2022/11/02 09:04:10;;;;;;;7.00;1.70;;;18.40;81.10;;;;;;5033757;28;20485;-67
2022/11/02 09:06:36;;;;;;;6.40;1.50;;;19.40;77.00;;;;;;5043762;28;20474;-66
2022/11/02 09:09:04;;;;;;;5.10;1.70;;;19.80;73.80;;;;;;5052006;28;20449;-67
2022/11/02 09:11:31;;;;;;;8.57;2.47;;;20.70;70.90;;;;;;5052105;28;20487;-67
2022/11/02 09:13:58;;;;;;;3.87;1.73;;;21.00;64.70;;;;;;5051978;28;20524;-67
2022/11/02 09:16:26;;;;;;;9.73;1.70;;;20.80;61.50;;;;;;5051598;28;20468;-67
2022/11/02 09:18:53;;;;;;;4.27;1.67;;;20.70;61.40;;;;;;5051786;28;20484;-67
2022/11/02 09:21:20;;;;;;;22.63;3.23;;;20.60;59.20;;;;;;5052165;28;20445;-67
2022/11/02 09:23:48;;;;;;;7.80;2.27;;;20.50;58.40;;;;;;5051741;28;20830;-67
2022/11/02 09:26:15;;;;;;;6.10;1.83;;;20.40;58.80;;;;;;5051179;28;20451;-67
2022/11/02 09:28:42;;;;;;;6.67;1.90;;;20.30;58.90;;;;;;5051675;28;20472;-67
2022/11/02 09:31:09;;;;;;;5.57;2.77;;;20.40;57.90;;;;;;5051803;28;20532;-68
2022/11/02 09:33:37;;;;;;;4.83;1.33;;;20.40;58.20;;;;;;5051520;28;20522;-67
2022/11/02 09:36:06;;;;;;;5.07;1.63;;;20.50;57.40;;;;;;5051303;28;20445;-67
2022/11/02 09:38:33;;;;;;;6.17;2.33;;;20.60;57.10;;;;;;5051745;28;20806;-67
2022/11/02 09:41:13;;;;;;;5.30;1.73;;;20.70;57.40;;;;;;5051914;28;20449;-67
2022/11/02 09:44:02;;;;;;;4.10;1.37;;;20.70;57.00;;;;;;5051991;28;20492;-67
2022/11/02 09:46:32;;;;;;;7.30;1.60;;;20.80;54.10;;;;;;5051467;28;20451;-67
2022/11/02 09:49:04;;;;;;;5.00;2.50;;;21.00;52.90;;;;;;5051643;28;20473;-67
2022/11/02 09:51:36;;;;;;;6.33;1.20;;;21.20;53.70;;;;;;5051987;28;20915;-67
2022/11/02 09:54:11;;;;;;;5.20;2.03;;;21.30;53.00;;;;;;5048728;28;21324;-67
2022/11/02 09:56:41;;;;;;;4.97;1.33;;;21.10;52.20;;;;;;5049507;28;20440;-68
2022/11/02 09:59:14;;;;;;;6.30;1.57;;;20.70;51.80;;;;;;5053192;28;20449;-67
2022/11/02 10:01:57;;;;;;;4.00;1.20;;;20.30;51.70;;;;;;5050987;28;20512;-67
2022/11/02 10:08:04;;;;;;;6.10;1.60;;;19.40;52.90;;;;;;5048285;28;20508;-69
2022/11/02 10:10:36;;;;;;;5.73;1.70;;;19.00;53.40;;;;;;5053339;28;20441;-67
2022/11/02 10:13:13;;;;;;;6.10;2.57;;;18.80;54.10;;;;;;5055845;28;20522;-67
2022/11/02 10:15:46;;;;;;;7.63;3.20;;;18.50;54.40;;;;;;5055339;28;20495;-67
2022/11/02 10:18:17;;;;;;;3.70;1.40;;;18.40;55.30;;;;;;5053053;28;20448;-66
2022/11/02 10:20:45;;;;;;;8.73;2.00;;;18.20;55.90;;;;;;5055252;28;20440;-66
2022/11/02 10:23:20;;;;;;;4.33;1.70;;;18.00;55.60;;;;;;5055218;28;20445;-67
2022/11/02 10:25:48;;;;;;;7.43;2.70;;;17.90;55.70;;;;;;5055275;28;20449;-67
2022/11/02 10:28:18;;;;;;;6.77;1.80;;;17.70;55.80;;;;;;5055210;28;20444;-67
2022/11/02 10:30:45;;;;;;;9.70;1.50;;;17.50;55.40;;;;;;5055107;28;20445;-67
2022/11/02 10:33:15;;;;;;;4.60;1.30;;;17.40;56.10;;;;;;5054601;28;20961;-67
2022/11/02 10:35:52;;;;;;;6.30;1.60;;;17.20;56.60;;;;;;5053973;28;20806;-67
2022/11/02 10:38:33;;;;;;;4.77;2.07;;;17.20;57.40;;;;;;5053890;28;20949;-67
2022/11/02 10:41:18;;;;;;;8.70;2.00;;;17.10;57.70;;;;;;5054764;28;20486;-66
2022/11/02 10:44:01;;;;;;;8.43;2.50;;;16.90;57.20;;;;;;5054380;28;21012;-67
2022/11/02 10:46:42;;;;;;;3.47;1.60;;;16.80;57.20;;;;;;5054759;28;20513;-67
2022/11/02 10:49:20;;;;;;;4.67;1.30;;;16.90;57.50;;;;;;5054528;28;20440;-67
2022/11/02 10:51:49;;;;;;;4.33;1.47;;;16.80;58.00;;;;;;5054916;28;20441;-67
2022/11/02 10:54:18;;;;;;;4.77;1.10;;;16.80;58.30;;;;;;5054155;28;20973;-68
2022/11/02 10:56:46;;;;;;;6.77;2.20;;;16.90;58.50;;;;;;5055320;28;20437;-68
2022/11/02 10:59:15;;;;;;;5.60;1.50;;;16.90;58.50;;;;;;5055571;28;20445;-68
2022/11/02 11:01:46;;;;;;;7.33;1.80;;;16.90;58.80;;;;;;5055830;28;20437;-67
2022/11/02 11:04:22;;;;;;;6.90;1.60;;;16.90;58.10;;;;;;5055396;28;21001;-67
2022/11/02 11:06:49;;;;;;;4.77;1.93;;;16.90;57.90;;;;;;5055917;28;20472;-66
2022/11/02 11:09:20;;;;;;;5.77;1.47;;;16.90;57.60;;;;;;5055537;28;20446;-67
2022/11/02 11:11:55;;;;;;;6.83;1.70;;;16.80;57.50;;;;;;5055917;28;20915;-67
2022/11/02 11:14:23;;;;;;;3.70;1.50;;;16.80;57.50;;;;;;5055611;28;20957;-66
2022/11/02 11:16:53;;;;;;;4.77;1.60;;;16.70;57.80;;;;;;5055280;28;20480;-66
2022/11/02 11:19:27;;;;;;;4.90;1.73;;;16.70;58.10;;;;;;5055447;28;20494;-67
2022/11/02 11:21:55;;;;;;;5.03;1.70;;;16.70;57.80;;;;;;5054112;28;20490;-67
2022/11/02 11:24:26;;;;;;;4.13;1.57;;;16.70;57.80;;;;;;5055498;28;20532;-66
2022/11/02 11:27:16;;;;;;;5.20;1.60;;;16.80;58.30;;;;;;5055374;28;20482;-66
2022/11/02 11:29:48;;;;;;;3.60;1.60;;;16.80;57.50;;;;;;5055284;28;20554;-67
2022/11/02 11:32:18;;;;;;;3.97;1.33;;;16.80;57.80;;;;;;5055257;28;20935;-67
2022/11/02 11:34:54;;;;;;;6.50;1.53;;;17.00;56.80;;;;;;5055199;28;21038;-66
2022/11/02 11:37:22;;;;;;;9.03;1.67;;;17.40;57.10;;;;;;5054797;28;20934;-67
2022/11/02 11:39:55;;;;;;;3.17;1.00;;;17.60;56.70;;;;;;5054926;28;20463;-67
2022/11/02 11:42:25;;;;;;;5.70;1.70;;;17.70;55.60;;;;;;5054920;28;20444;-66
2022/11/02 11:45:01;;;;;;;4.70;1.50;;;17.70;55.50;;;;;;5052653;28;20480;-67
2022/11/02 11:47:32;;;;;;;5.23;1.60;;;17.70;55.70;;;;;;5054914;28;20480;-67
2022/11/02 11:50:03;;;;;;;4.00;1.90;;;17.70;55.40;;;;;;5054690;28;20540;-66
2022/11/02 11:52:31;;;;;;;8.70;1.60;;;17.70;55.40;;;;;;5054912;28;20494;-66
2022/11/02 11:55:01;;;;;;;7.43;1.67;;;17.60;55.60;;;;;;5054639;28;20527;-67
2022/11/02 11:57:30;;;;;;;5.57;1.83;;;17.50;55.60;;;;;;5054786;28;20862;-66
2022/11/02 12:00:00;;;;;;;4.53;2.23;;;17.50;55.50;;;;;;5054523;28;20437;-66
2022/11/02 12:02:29;;;;;;;5.10;2.13;;;17.40;55.90;;;;;;5054735;28;20433;-67
2022/11/02 12:05:11;;;;;;;8.63;2.00;;;17.40;56.80;;;;;;5054631;28;20434;-67
2022/11/02 12:08:09;;;;;;;7.40;2.17;;;17.30;56.50;;;;;;5054083;28;20441;-68
2022/11/02 12:10:55;;;;;;;5.23;1.70;;;17.20;55.80;;;;;;5054416;28;20440;-66
2022/11/02 12:13:35;;;;;;;6.83;2.17;;;17.10;55.60;;;;;;5037252;28;20476;-66
2022/11/02 12:16:13;;;;;;;7.37;1.80;;;17.10;56.10;;;;;;5052745;28;20874;-66
2022/11/02 12:19:00;;;;;;;8.97;3.23;;;17.10;56.40;;;;;;5053908;28;20441;-69
2022/11/02 12:21:50;;;;;;;4.47;1.83;;;17.10;56.60;;;;;;5034333;28;20438;-67
2022/11/02 12:24:47;;;;;;;9.20;2.27;;;17.00;56.50;;;;;;5053139;28;20437;-67
2022/11/02 12:27:33;;;;;;;7.40;1.60;;;17.00;56.90;;;;;;5032310;28;20507;-67
2022/11/02 12:30:15;;;;;;;5.67;2.10;;;17.00;57.10;;;;;;5047652;28;20440;-66
2022/11/02 12:32:54;;;;;;;6.87;2.40;;;17.00;57.00;;;;;;5053438;28;20511;-67
2022/11/02 12:35:49;;;;;;;9.40;2.53;;;17.00;57.30;;;;;;5052918;28;20473;-67
2022/11/02 12:38:32;;;;;;;4.37;2.17;;;17.00;57.60;;;;;;5053085;28;20524;-67
2022/11/02 12:41:04;;;;;;;4.20;1.60;;;16.90;57.80;;;;;;5053448;28;20448;-70
2022/11/02 12:43:40;;;;;;;6.90;1.87;;;16.90;57.90;;;;;;5052331;28;20532;-67
2022/11/02 12:46:32;;;;;;;6.93;1.93;;;16.80;58.00;;;;;;5052250;28;20461;-66
2022/11/02 12:49:13;;;;;;;9.00;2.73;;;16.80;58.60;;;;;;5053316;28;20503;-67
2022/11/02 12:51:46;;;;;;;3.83;2.03;;;16.80;58.70;;;;;;5053325;28;20448;-66
2022/11/02 12:54:19;;;;;;;7.33;1.73;;;17.00;58.80;;;;;;5052647;28;20527;-67
2022/11/02 12:56:48;;;;;;;3.17;1.30;;;17.00;58.70;;;;;;5053451;28;20515;-66
2022/11/02 12:59:22;;;;;;;8.93;1.90;;;17.10;58.70;;;;;;5053823;28;20436;-67
2022/11/02 13:01:53;;;;;;;8.50;1.53;;;17.30;58.70;;;;;;5053443;28;20486;-66
2022/11/02 13:04:23;;;;;;;6.10;1.43;;;17.40;58.30;;;;;;5053761;28;20433;-66
2022/11/02 13:06:56;;;;;;;2.93;1.20;;;17.40;57.10;;;;;;5053555;28;20494;-67
2022/11/02 13:09:28;;;;;;;10.80;1.83;;;17.50;56.40;;;;;;5053592;28;20490;-67
2022/11/02 13:12:02;;;;;;;4.60;1.53;;;17.50;56.10;;;;;;5053576;28;21076;-66
2022/11/02 13:14:39;;;;;;;2.37;1.13;;;17.50;55.90;;;;;;5053560;28;20444;-67
2022/11/02 13:17:14;;;;;;;2.60;1.30;;;17.40;55.80;;;;;;5053396;28;20526;-67
2022/11/02 13:19:47;;;;;;;4.47;1.40;;;17.40;55.30;;;;;;5053273;28;20992;-68
2022/11/02 13:22:16;;;;;;;7.00;1.60;;;17.40;55.10;;;;;;5053486;28;20441;-68
2022/11/02 13:24:47;;;;;;;3.43;2.10;;;17.40;55.00;;;;;;5051128;28;20865;-66